Time;durP1;ratioP1;P1;durP2;ratioP2;P2;SDS_P1;SDS_P2;PMS_P1;PMS_P2;Temp;Humidity;BMP_temperature;BMP_pressure;BME280_temperature;BME280_humidity;BME280_pressure;Samples;Min_cycle;Max_cycle;Signal;HPM_P1;HPM_P2
2022/05/05 00:01:33;;;;;;;18.35;10.38;;;;;;;11.70;100.00;98673.72;5046884;28;20025;-70
2022/05/05 00:03:59;;;;;;;17.23;10.07;;;;;;;11.65;100.00;98675.63;5046631;28;20049;-70
2022/05/05 00:06:26;;;;;;;50.22;12.10;;;;;;;11.41;100.00;98668.22;5045610;28;20309;-70
2022/05/05 00:08:51;;;;;;;14.20;9.68;;;;;;;11.37;100.00;98674.47;5046791;28;20021;-70
2022/05/05 00:16:45;;;;;;;22.50;10.00;;;;;;;11.43;100.00;98666.44;5046531;28;20347;-70
2022/05/05 00:19:10;;;;;;;18.30;10.65;;;;;;;11.34;100.00;98658.72;5046803;28;20022;-70
2022/05/05 00:21:38;;;;;;;19.90;9.65;;;;;;;11.25;100.00;98661.53;5065972;28;20036;-70
2022/05/05 00:24:05;;;;;;;14.43;9.55;;;;;;;11.21;100.00;98659.00;5066375;28;20032;-70
2022/05/05 00:26:30;;;;;;;27.90;9.80;;;;;;;11.15;100.00;98652.09;5066347;28;20041;-70
2022/05/05 00:28:56;;;;;;;12.70;8.40;;;;;;;11.22;100.00;98652.81;5066292;28;20020;-70
2022/05/05 00:31:21;;;;;;;15.95;7.95;;;;;;;11.21;100.00;98659.88;5066231;28;20316;-70
2022/05/05 00:33:47;;;;;;;13.05;8.27;;;;;;;11.15;100.00;98657.38;5065964;28;20088;-70
2022/05/05 00:36:12;;;;;;;12.88;7.88;;;;;;;11.17;100.00;98655.56;5046241;28;20048;-70
2022/05/05 00:38:38;;;;;;;15.57;8.82;;;;;;;11.10;100.00;98669.75;5046367;28;20031;-70
2022/05/05 00:41:03;;;;;;;15.07;7.90;;;;;;;11.10;100.00;98664.50;5046125;28;20251;-70
2022/05/05 00:43:30;;;;;;;11.50;7.90;;;;;;;11.11;100.00;98661.00;5046042;28;20089;-70
2022/05/05 00:45:56;;;;;;;12.50;8.45;;;;;;;11.11;100.00;98671.53;5045983;28;20017;-70
2022/05/05 00:48:26;;;;;;;11.82;7.65;;;;;;;11.03;100.00;98673.44;5045985;28;20036;-70
2022/05/05 00:50:51;;;;;;;17.25;8.65;;;;;;;11.07;100.00;98672.47;5046160;28;20033;-70
2022/05/05 00:53:16;;;;;;;14.70;8.65;;;;;;;11.01;100.00;98669.94;5045860;28;20025;-70
2022/05/05 00:55:42;;;;;;;10.38;7.10;;;;;;;10.98;100.00;98670.00;5045818;28;20021;-70
2022/05/05 00:58:09;;;;;;;14.05;8.90;;;;;;;10.96;100.00;98682.38;5045764;28;20028;-70
2022/05/05 01:00:34;;;;;;;13.93;9.00;;;;;;;10.98;100.00;98680.53;5044698;28;20093;-70
2022/05/05 01:03:01;;;;;;;13.68;8.70;;;;;;;10.98;100.00;98680.53;5059711;28;20044;-70
2022/05/05 01:05:30;;;;;;;12.32;8.35;;;;;;;11.06;100.00;98678.63;5065604;28;20024;-70
2022/05/05 01:07:58;;;;;;;13.02;9.35;;;;;;;11.02;100.00;98676.09;5065581;28;20063;-70
2022/05/05 01:10:25;;;;;;;15.02;9.45;;;;;;;10.89;100.00;98675.50;5054878;28;20029;-70
2022/05/05 01:12:52;;;;;;;13.07;8.90;;;;;;;10.89;100.00;98675.50;5045530;28;20037;-70
2022/05/05 01:15:17;;;;;;;12.80;8.38;;;;;;;10.96;100.00;98682.38;5045447;28;20021;-70
2022/05/05 01:17:43;;;;;;;15.43;9.07;;;;;;;11.00;100.00;98684.03;5045379;28;20375;-70
2022/05/05 01:20:14;;;;;;;14.27;9.52;;;;;;;11.01;100.00;98680.47;5045587;28;20022;-70
2022/05/05 01:22:40;;;;;;;12.45;7.85;;;;;;;11.01;100.00;98683.13;5045340;28;20087;-70
2022/05/05 01:30:33;;;;;;;12.18;7.28;;;;;;;11.03;100.00;98678.69;5045142;28;20028;-70
2022/05/05 01:32:59;;;;;;;16.60;8.50;;;;;;;11.08;100.00;98676.84;5045109;28;20313;-70
2022/05/05 01:35:25;;;;;;;13.65;9.05;;;;;;;11.01;100.00;98680.47;5045005;28;20055;-70
2022/05/05 01:37:50;;;;;;;15.13;8.85;;;;;;;10.99;100.00;98682.31;5052077;28;20032;-70
2022/05/05 01:40:16;;;;;;;16.08;8.90;;;;;;;10.96;100.00;98682.38;5064970;28;20367;-70
2022/05/05 01:42:42;;;;;;;18.48;9.00;;;;;;;10.91;100.00;98676.31;5064926;28;20032;-70
2022/05/05 01:45:08;;;;;;;16.23;8.95;;;;;;;10.92;100.00;98680.69;5064826;28;20025;-70
2022/05/05 01:47:33;;;;;;;14.57;9.23;;;;;;;10.87;100.00;98691.31;5064742;28;20049;-70
2022/05/05 01:50:00;;;;;;;14.00;8.70;;;;;;;10.92;100.00;98681.53;5064705;28;20317;-70
2022/05/05 01:52:27;;;;;;;13.07;9.23;;;;;;;10.98;100.00;98685.81;5064962;28;20048;-70
2022/05/05 01:54:52;;;;;;;13.32;8.73;;;;;;;10.94;100.00;98679.75;5064668;28;20027;-70
2022/05/05 01:57:17;;;;;;;13.80;8.80;;;;;;;10.99;100.00;98682.31;5045839;28;20344;-70
2022/05/05 01:59:43;;;;;;;15.25;9.45;;;;;;;11.02;100.00;98687.50;5044698;28;20025;-70
2022/05/05 02:02:08;;;;;;;13.93;8.43;;;;;;;11.06;100.00;98694.44;5044512;28;20024;-70
2022/05/05 02:04:34;;;;;;;12.48;8.55;;;;;;;11.05;100.00;98690.09;5044401;28;20045;-70
2022/05/05 02:06:59;;;;;;;14.48;8.30;;;;;;;11.05;100.00;98692.72;5044556;28;20329;-70
2022/05/05 02:09:25;;;;;;;16.73;10.52;;;;;;;11.01;100.00;98685.75;5044476;28;20029;-70
2022/05/05 02:11:50;;;;;;;12.90;8.90;;;;;;;11.00;100.00;98699.84;5044276;28;20071;-70
2022/05/05 02:14:16;;;;;;;12.40;7.90;;;;;;;11.01;100.00;98701.56;5044391;28;20029;-70
2022/05/05 02:16:42;;;;;;;15.57;9.35;;;;;;;11.02;100.00;98692.78;5044280;28;20021;-70
2022/05/05 02:19:07;;;;;;;14.30;8.50;;;;;;;11.01;100.00;98691.03;5044292;28;20041;-70
2022/05/05 02:21:32;;;;;;;13.45;8.15;;;;;;;11.08;100.00;98697.91;5044296;28;20021;-70
2022/05/05 02:23:58;;;;;;;14.48;8.20;;;;;;;11.08;100.00;98695.28;5044458;28;20037;-70
2022/05/05 02:26:23;;;;;;;16.50;8.77;;;;;;;11.02;100.00;98704.16;5044233;28;20367;-70
2022/05/05 02:28:49;;;;;;;13.13;8.07;;;;;;;11.13;100.00;98706.59;5044168;28;20032;-70
2022/05/05 02:31:15;;;;;;;12.15;8.10;;;;;;;11.08;100.00;98703.19;5044154;28;20081;-70
2022/05/05 02:33:41;;;;;;;13.38;8.43;;;;;;;11.11;100.00;98703.13;5044382;28;20025;-70
2022/05/05 02:38:51;;;;;;;12.30;8.30;;;;;;;11.14;100.00;98705.69;5051111;28;20028;-70
2022/05/05 02:41:16;;;;;;;12.68;8.02;;;;;;;11.16;100.00;98706.53;5064001;28;20017;-70
2022/05/05 02:43:42;;;;;;;13.98;8.52;;;;;;;11.21;100.00;98712.56;5063919;28;20025;-70
2022/05/05 02:46:07;;;;;;;11.30;7.32;;;;;;;11.23;100.00;98708.13;5046227;28;20053;-70
2022/05/05 02:48:32;;;;;;;13.18;8.95;;;;;;;11.29;100.00;98712.44;5043941;28;20025;-70
2022/05/05 02:50:58;;;;;;;17.38;9.68;;;;;;;11.23;100.00;98713.38;5059201;28;20048;-70
2022/05/05 02:56:07;;;;;;;14.27;8.38;;;;;;;11.23;100.00;98716.03;5064096;28;20067;-70
2022/05/05 02:58:33;;;;;;;14.20;9.13;;;;;;;11.20;100.00;98712.59;5063813;28;20103;-70
2022/05/05 03:00:58;;;;;;;18.98;10.77;;;;;;;11.15;100.00;98715.34;5063815;28;20021;-70
2022/05/05 03:03:24;;;;;;;23.00;12.48;;;;;;;11.21;100.00;98716.97;5063588;28;20045;-70
2022/05/05 03:05:49;;;;;;;16.58;9.52;;;;;;;11.24;100.00;98715.16;5063766;28;20055;-70
2022/05/05 03:08:15;;;;;;;17.92;9.50;;;;;;;11.20;100.00;98713.44;5063675;28;20025;-70
2022/05/05 03:10:40;;;;;;;18.48;9.65;;;;;;;11.16;100.00;98717.06;5059589;28;20029;-70
2022/05/05 03:13:05;;;;;;;18.08;10.00;;;;;;;11.16;100.00;98722.31;5043700;28;20077;-70
2022/05/05 03:15:31;;;;;;;18.52;10.65;;;;;;;11.17;100.00;98716.16;5043710;28;20084;-70
2022/05/05 03:17:58;;;;;;;15.82;9.20;;;;;;;11.25;100.00;98721.25;5043571;28;20040;-70
2022/05/05 03:20:24;;;;;;;14.00;8.48;;;;;;;11.25;100.00;98722.16;5043697;28;20067;-70
2022/05/05 03:22:49;;;;;;;14.10;9.18;;;;;;;11.20;100.00;98718.72;5043594;28;20044;-70
2022/05/05 03:25:14;;;;;;;15.93;8.32;;;;;;;11.25;100.00;98723.91;5047037;28;20021;-70
2022/05/05 03:27:40;;;;;;;21.38;9.02;;;;;;;11.19;100.00;98722.25;5047471;28;20024;-70
2022/05/05 03:30:06;;;;;;;13.30;8.05;;;;;;;11.19;100.00;98727.53;5047416;28;20317;-70
2022/05/05 03:32:32;;;;;;;17.65;8.32;;;;;;;11.33;100.00;98724.63;5047412;28;20025;-70
2022/05/05 03:34:58;;;;;;;12.90;7.82;;;;;;;11.48;100.00;98727.78;5056876;28;20286;-70
2022/05/05 03:37:28;;;;;;;15.80;8.65;;;;;;;11.54;100.00;98719.75;5067188;28;20086;-70
2022/05/05 03:39:53;;;;;;;22.38;10.88;;;;;;;11.58;100.00;98723.22;5060423;28;20374;-70
2022/05/05 03:42:19;;;;;;;21.92;10.45;;;;;;;11.61;100.00;98726.63;5056030;28;20096;-70
2022/05/05 03:44:44;;;;;;;20.38;11.10;;;;;;;11.63;100.00;98719.59;5067207;28;20043;-70
2022/05/05 03:47:10;;;;;;;20.45;10.90;;;;;;;11.58;100.00;98723.22;5067133;28;20289;-70
2022/05/05 03:49:35;;;;;;;21.30;10.57;;;;;;;11.58;100.00;98726.69;5067096;28;20024;-70
2022/05/05 03:52:01;;;;;;;19.50;10.70;;;;;;;11.59;100.00;98731.09;5067027;28;20312;-70
2022/05/05 03:54:26;;;;;;;20.77;10.68;;;;;;;11.53;100.00;98739.13;5066955;28;20024;-70
2022/05/05 03:56:52;;;;;;;17.60;10.48;;;;;;;11.50;100.00;98733.91;5066868;28;20021;-70
2022/05/05 03:59:17;;;;;;;21.05;9.80;;;;;;;11.52;100.00;98737.34;5065189;28;20319;-70
2022/05/05 04:01:43;;;;;;;19.65;8.52;;;;;;;11.37;98.43;98729.81;5066834;28;20025;-70
2022/05/05 04:04:08;;;;;;;14.60;7.65;;;;;;;11.36;96.48;98735.94;5066660;28;20044;-70
2022/05/05 04:06:34;;;;;;;17.25;7.80;;;;;;;11.30;96.70;98738.75;5066775;28;20013;-70
2022/05/05 04:09:03;;;;;;;19.30;8.10;;;;;;;11.28;95.91;98743.16;5066710;28;20215;-70
2022/05/05 04:11:28;;;;;;;16.02;7.22;;;;;;;11.31;96.89;98745.75;5066631;28;20025;-70
2022/05/05 04:13:54;;;;;;;13.80;7.47;;;;;;;11.30;97.02;98746.66;5064636;28;20023;-70
2022/05/05 04:16:19;;;;;;;17.27;8.05;;;;;;;11.21;98.22;98746.81;5062611;28;20032;-70
2022/05/05 04:18:45;;;;;;;14.55;7.95;;;;;;;11.15;99.55;98752.22;5045907;28;20021;-70
2022/05/05 04:21:10;;;;;;;22.38;7.80;;;;;;;11.05;100.00;98750.66;5045562;28;20025;-69
2022/05/05 04:23:37;;;;;;;14.07;6.10;;;;;;;11.06;100.00;98757.66;5045523;28;20017;-70
2022/05/05 04:26:04;;;;;;;13.80;6.90;;;;;;;11.17;99.86;98763.56;5049477;28;20052;-70
2022/05/05 04:28:30;;;;;;;18.48;6.90;;;;;;;11.23;98.16;98760.81;5064993;28;20025;-70
2022/05/05 04:30:55;;;;;;;24.52;8.25;;;;;;;11.29;97.01;98768.59;5064635;28;20048;-69
2022/05/05 04:33:21;;;;;;;16.17;6.88;;;;;;;11.35;97.35;98763.22;5065408;28;20033;-69
2022/05/05 04:35:47;;;;;;;19.13;7.55;;;;;;;11.23;97.47;98763.44;5066040;28;20221;-69
2022/05/05 04:38:13;;;;;;;21.52;7.07;;;;;;;11.10;97.29;98769.88;5064894;28;20224;-68
2022/05/05 04:40:38;;;;;;;14.30;6.93;;;;;;;11.04;96.53;98758.59;5047086;28;20036;-68
2022/05/05 04:43:04;;;;;;;15.20;7.47;;;;;;;11.02;95.88;98769.16;5046110;28;20100;-68
2022/05/05 04:45:29;;;;;;;13.68;6.55;;;;;;;10.94;96.08;98769.28;5046069;28;20025;-68
2022/05/05 04:47:55;;;;;;;13.68;6.43;;;;;;;10.95;95.90;98775.44;5045970;28;20029;-68
2022/05/05 04:50:20;;;;;;;17.50;6.80;;;;;;;10.93;96.20;98777.22;5046059;28;20368;-68
2022/05/05 04:52:46;;;;;;;21.48;7.20;;;;;;;10.90;96.63;98783.41;5045946;28;20075;-68
2022/05/05 04:55:11;;;;;;;16.27;6.90;;;;;;;10.87;97.38;98782.59;5045864;28;20029;-68
2022/05/05 04:57:38;;;;;;;20.40;7.30;;;;;;;10.86;97.62;98780.88;5045796;28;20021;-68
2022/05/05 05:00:05;;;;;;;13.52;7.40;;;;;;;10.95;98.05;98786.81;5046026;28;20030;-68
2022/05/05 05:02:31;;;;;;;14.52;6.85;;;;;;;10.91;97.89;98786.91;5045509;28;20044;-68
2022/05/05 05:04:56;;;;;;;21.70;8.10;;;;;;;10.88;98.23;98786.97;5045754;28;20071;-68
2022/05/05 05:07:22;;;;;;;16.45;7.18;;;;;;;10.82;98.69;98790.56;5045669;28;20017;-68
2022/05/05 05:09:48;;;;;;;11.35;6.47;;;;;;;10.85;98.92;98792.28;5045578;28;20021;-68
2022/05/05 05:12:14;;;;;;;15.13;6.63;;;;;;;10.86;98.31;98789.63;5045846;28;20249;-68
2022/05/05 05:14:40;;;;;;;12.15;6.32;;;;;;;10.85;98.63;98792.28;5045497;28;20032;-68
2022/05/05 05:17:05;;;;;;;12.23;5.93;;;;;;;10.85;97.95;98789.66;5045349;28;20021;-68
2022/05/05 05:19:30;;;;;;;18.55;6.00;;;;;;;10.96;97.77;98803.50;5045431;28;20123;-68
2022/05/05 05:21:56;;;;;;;14.15;6.00;;;;;;;10.94;96.66;98805.28;5045434;28;20295;-68
2022/05/05 05:24:21;;;;;;;12.40;5.47;;;;;;;11.26;95.96;98813.44;5045558;28;20084;-68
2022/05/05 05:26:47;;;;;;;11.23;6.15;;;;;;;11.06;96.17;98810.34;5045316;28;20230;-68
2022/05/05 05:29:12;;;;;;;9.57;5.03;;;;;;;11.03;96.77;98815.66;5045276;28;20033;-68
2022/05/05 05:31:38;;;;;;;16.33;6.82;;;;;;;10.94;97.40;98813.19;5045142;28;20025;-68
2022/05/05 05:34:04;;;;;;;12.98;6.28;;;;;;;10.89;97.29;98815.06;5045373;28;20029;-68
2022/05/05 05:36:30;;;;;;;13.13;6.47;;;;;;;10.90;97.81;98824.69;5045013;28;20338;-68
2022/05/05 05:38:55;;;;;;;14.23;5.85;;;;;;;10.88;98.17;98815.91;5045078;28;20022;-68
2022/05/05 05:41:21;;;;;;;11.98;5.82;;;;;;;10.84;98.47;98819.50;5044955;28;20343;-68
2022/05/05 05:43:46;;;;;;;11.88;5.63;;;;;;;10.82;98.17;98816.03;5044987;28;20259;-68
2022/05/05 05:46:12;;;;;;;14.25;5.68;;;;;;;10.81;97.82;98816.94;5044693;28;20021;-68
2022/05/05 05:48:38;;;;;;;16.92;6.15;;;;;;;10.82;98.05;98823.94;5044837;28;20018;-68
2022/05/05 05:51:05;;;;;;;11.05;5.55;;;;;;;10.88;97.58;98826.47;5044839;28;20088;-68
2022/05/05 05:53:31;;;;;;;16.83;5.70;;;;;;;11.04;97.04;98833.19;5044780;28;20340;-68
2022/05/05 05:55:56;;;;;;;15.48;5.55;;;;;;;11.07;96.02;98837.56;5044661;28;20021;-68
2022/05/05 05:58:22;;;;;;;14.68;5.90;;;;;;;11.06;96.43;98841.94;5044675;28;20017;-68
2022/05/05 06:00:47;;;;;;;10.52;5.00;;;;;;;11.00;96.59;98836.78;5044682;28;20067;-68
2022/05/05 06:05:57;;;;;;;13.73;5.22;;;;;;;11.35;94.74;98844.91;5044542;28;20106;-68
2022/05/05 06:08:22;;;;;;;11.50;4.95;;;;;;;11.43;93.60;98850.91;5044540;28;20022;-68
2022/05/05 06:10:48;;;;;;;12.73;4.90;;;;;;;11.28;94.56;98853.81;5044431;28;20328;-68
2022/05/05 06:13:13;;;;;;;8.88;4.60;;;;;;;11.18;94.25;98856.66;5044496;28;20028;-68
2022/05/05 06:15:39;;;;;;;12.38;5.05;;;;;;;11.27;95.10;98861.75;5044355;28;20320;-68
2022/05/05 06:18:04;;;;;;;7.68;4.03;;;;;;;11.17;95.26;98858.41;5044299;28;20049;-68
2022/05/05 06:20:32;;;;;;;8.10;3.22;;;;;;;11.43;94.89;98863.22;5044270;28;20021;-68
2022/05/05 06:22:58;;;;;;;12.82;4.35;;;;;;;11.42;95.22;98862.31;5044317;28;20329;-68
2022/05/05 06:25:24;;;;;;;9.82;5.28;;;;;;;11.40;94.60;98864.16;5044258;28;20066;-68
2022/05/05 06:27:50;;;;;;;13.27;4.30;;;;;;;11.49;93.79;98871.88;5044181;28;20029;-68
2022/05/05 06:30:17;;;;;;;14.30;5.10;;;;;;;11.34;94.68;98864.25;5044241;28;20025;-68
2022/05/05 06:32:43;;;;;;;15.02;4.00;;;;;;;11.47;95.94;98871.03;5044420;28;20021;-68
2022/05/05 06:35:10;;;;;;;11.35;4.70;;;;;;;11.42;94.99;98872.88;5044046;28;20021;-68
2022/05/05 06:37:36;;;;;;;13.68;5.00;;;;;;;11.30;96.24;98870.50;5044000;28;20025;-68
2022/05/05 06:40:02;;;;;;;13.35;4.65;;;;;;;11.10;97.30;98867.31;5044073;28;20089;-68
2022/05/05 06:42:28;;;;;;;8.93;4.43;;;;;;;11.10;97.94;98875.22;5044243;28;20316;-68
2022/05/05 06:44:53;;;;;;;9.05;4.55;;;;;;;11.23;97.80;98876.75;5043996;28;20032;-68
2022/05/05 06:47:19;;;;;;;11.05;4.20;;;;;;;11.42;97.61;98878.16;5043981;28;20018;-68
2022/05/05 06:49:44;;;;;;;8.85;3.88;;;;;;;11.65;94.80;98870.72;5044047;28;20025;-68
2022/05/05 06:52:10;;;;;;;6.78;3.78;;;;;;;11.60;94.74;98871.66;5043895;28;20333;-68
2022/05/05 06:54:35;;;;;;;13.27;4.65;;;;;;;11.52;94.71;98879.69;5043866;28;20025;-68
2022/05/05 06:57:01;;;;;;;10.77;4.72;;;;;;;11.48;94.95;98883.31;5042634;28;20041;-68
2022/05/05 06:59:26;;;;;;;8.38;3.85;;;;;;;11.46;94.39;98887.75;5046167;28;20233;-68
2022/05/05 07:01:52;;;;;;;12.18;4.55;;;;;;;11.49;94.84;98892.97;5047966;28;20025;-68
2022/05/05 07:07:06;;;;;;;11.50;4.40;;;;;;;11.46;94.76;98900.94;5047910;28;20029;-68
2022/05/05 07:12:16;;;;;;;8.60;4.25;;;;;;;11.35;97.87;98902.00;5047806;28;20220;-68
2022/05/05 07:14:45;;;;;;;11.77;5.00;;;;;;;11.49;95.30;98900.88;5048033;28;20021;-68
2022/05/05 07:17:11;;;;;;;7.47;3.40;;;;;;;11.56;95.28;98907.75;5047647;28;20044;-68
2022/05/05 07:19:37;;;;;;;6.47;3.47;;;;;;;11.66;93.48;98911.13;5047944;28;20100;-68
2022/05/05 07:22:03;;;;;;;9.05;4.20;;;;;;;11.60;94.35;98914.72;5047578;28;20048;-68
2022/05/05 07:24:32;;;;;;;6.93;3.72;;;;;;;11.64;94.24;98918.19;5047612;28;20021;-68
2022/05/05 07:26:58;;;;;;;8.65;4.28;;;;;;;11.59;94.82;98926.16;5047560;28;20028;-68
2022/05/05 07:29:24;;;;;;;11.35;4.43;;;;;;;11.45;94.60;98925.53;5047572;28;20084;-68
2022/05/05 07:31:49;;;;;;;7.60;3.92;;;;;;;11.66;94.50;98919.91;5047534;28;20032;-68
2022/05/05 07:34:15;;;;;;;9.70;3.88;;;;;;;11.71;95.24;98920.66;5047414;28;20029;-68
2022/05/05 07:36:41;;;;;;;8.48;3.78;;;;;;;11.58;95.10;98921.78;5047302;28;20021;-68
2022/05/05 07:39:07;;;;;;;14.10;5.63;;;;;;;11.65;95.75;98923.44;5047294;28;20036;-68
2022/05/05 07:41:32;;;;;;;9.02;4.03;;;;;;;11.61;96.51;98919.06;5047274;28;20025;-68
2022/05/05 07:43:58;;;;;;;9.85;4.13;;;;;;;11.71;94.12;98923.31;5047280;28;20041;-68
2022/05/05 07:46:24;;;;;;;13.95;4.15;;;;;;;11.78;94.46;98924.94;5047228;28;20017;-68
2022/05/05 07:48:50;;;;;;;13.27;4.30;;;;;;;11.85;94.03;98928.31;5047083;28;20032;-68
2022/05/05 07:51:16;;;;;;;8.93;4.55;;;;;;;11.99;93.12;98928.94;5047083;28;20059;-68
2022/05/05 07:53:42;;;;;;;8.95;4.50;;;;;;;12.05;93.05;98923.50;5047046;28;20025;-68
2022/05/05 07:56:07;;;;;;;8.73;4.30;;;;;;;12.09;93.32;98931.31;5046910;28;20363;-68
2022/05/05 07:58:34;;;;;;;8.90;5.15;;;;;;;11.81;93.69;98919.63;5046920;28;20037;-68
2022/05/05 08:00:59;;;;;;;13.57;5.47;;;;;;;11.66;93.26;98929.56;5046970;28;20029;-68
2022/05/05 08:03:25;;;;;;;11.65;5.55;;;;;;;11.74;93.13;98928.53;5046698;28;20072;-68
2022/05/05 08:05:50;;;;;;;9.57;4.45;;;;;;;11.60;93.05;98930.53;5046895;28;20025;-68
2022/05/05 08:08:16;;;;;;;13.50;4.63;;;;;;;11.64;94.71;98937.50;5046828;28;20042;-68
2022/05/05 08:10:41;;;;;;;10.43;5.68;;;;;;;11.52;95.77;98942.97;5046294;28;20249;-68
2022/05/05 08:13:07;;;;;;;14.35;5.45;;;;;;;11.53;96.26;98944.72;5046946;28;20025;-68
2022/05/05 08:15:32;;;;;;;10.75;5.25;;;;;;;11.59;97.42;98938.47;5046617;28;20097;-68
2022/05/05 08:17:58;;;;;;;12.80;5.93;;;;;;;11.54;95.09;98946.47;5046743;28;20026;-68
2022/05/05 08:20:23;;;;;;;15.80;5.57;;;;;;;11.53;95.98;98950.00;5046647;28;20252;-68
2022/05/05 08:22:49;;;;;;;8.95;4.63;;;;;;;11.61;97.66;98953.34;5046537;28;20032;-68
2022/05/05 08:30:43;;;;;;;8.15;4.13;;;;;;;12.21;94.25;98962.75;5046674;28;20039;-68
2022/05/05 08:33:09;;;;;;;13.27;6.00;;;;;;;12.05;94.94;98955.16;5046295;28;20148;-68
2022/05/05 08:35:34;;;;;;;12.75;5.53;;;;;;;12.00;95.18;98955.28;5046301;28;20029;-68
2022/05/05 08:38:00;;;;;;;16.25;4.88;;;;;;;11.98;95.15;98954.44;5046173;28;20017;-68
2022/05/05 08:40:27;;;;;;;12.38;5.63;;;;;;;11.97;95.21;98957.97;5046154;28;20047;-68
2022/05/05 08:42:53;;;;;;;16.08;5.25;;;;;;;11.91;95.63;98962.50;5046189;28;20026;-68
2022/05/05 08:45:20;;;;;;;10.73;5.22;;;;;;;11.91;94.20;98965.13;5046317;28;20247;-68
2022/05/05 08:47:47;;;;;;;8.80;5.15;;;;;;;12.01;94.26;98969.31;5046123;28;20060;-68
2022/05/05 08:50:13;;;;;;;10.82;5.45;;;;;;;11.98;93.70;98975.53;5045992;28;20023;-68
2022/05/05 08:52:44;;;;;;;14.05;6.10;;;;;;;11.98;93.83;98985.22;5045916;28;20053;-68
2022/05/05 08:55:14;;;;;;;19.45;5.95;;;;;;;12.04;94.17;98974.53;5045961;28;20021;-68
2022/05/05 08:57:41;;;;;;;12.85;5.57;;;;;;;12.05;95.29;98981.53;5045786;28;20344;-68
2022/05/05 09:00:07;;;;;;;10.60;5.72;;;;;;;11.98;95.09;98980.81;5045770;28;20080;-68
2022/05/05 09:02:32;;;;;;;8.70;4.32;;;;;;;11.98;95.71;98980.81;5045503;28;20029;-68
2022/05/05 09:04:58;;;;;;;14.63;6.50;;;;;;;12.04;95.07;98985.97;5045723;28;20071;-68
2022/05/05 09:07:50;;;;;;;11.13;4.68;;;;;;;12.06;95.22;98988.59;5045710;28;20084;-68
2022/05/05 09:10:20;;;;;;;17.67;6.43;;;;;;;12.09;95.31;98992.00;5045704;28;20028;-68
2022/05/05 09:12:59;;;;;;;10.70;5.25;;;;;;;12.12;96.19;99005.16;5045804;28;20321;-68
2022/05/05 09:15:33;;;;;;;19.00;5.55;;;;;;;12.06;96.18;98999.13;5045568;28;20064;-68
2022/05/05 09:18:16;;;;;;;11.00;5.75;;;;;;;11.97;95.95;98988.75;5045447;28;20040;-68
2022/05/05 09:20:43;;;;;;;14.35;6.65;;;;;;;12.05;98.30;98990.34;5045087;28;20021;-68
2022/05/05 09:23:09;;;;;;;16.17;6.32;;;;;;;12.17;97.82;98991.84;5044938;28;20025;-68
2022/05/05 09:25:45;;;;;;;12.77;5.88;;;;;;;12.28;97.45;98995.16;5045373;28;20021;-68
2022/05/05 09:28:17;;;;;;;12.77;5.70;;;;;;;12.27;96.46;98999.56;5045313;28;20021;-68
2022/05/05 09:30:50;;;;;;;15.18;7.60;;;;;;;12.42;96.10;99003.66;5045217;28;20075;-68
2022/05/05 09:33:37;;;;;;;17.83;7.53;;;;;;;12.37;97.61;99000.28;5045121;28;20025;-68
2022/05/05 09:36:07;;;;;;;14.02;7.60;;;;;;;12.42;98.38;99015.09;5045045;28;20051;-68
2022/05/05 09:39:00;;;;;;;16.83;7.47;;;;;;;12.38;97.45;99012.56;5045076;28;20029;-68
2022/05/05 09:41:32;;;;;;;15.88;7.75;;;;;;;12.45;97.83;99014.16;5046657;28;20034;-68
2022/05/05 09:44:03;;;;;;;18.98;7.65;;;;;;;12.51;98.34;99007.00;5045289;28;20241;-68
2022/05/05 09:46:30;;;;;;;15.63;8.13;;;;;;;12.49;98.53;99006.16;5044923;28;20217;-68
2022/05/05 09:49:08;;;;;;;16.15;7.55;;;;;;;12.54;98.04;99009.56;5045164;28;20025;-68
2022/05/05 09:51:45;;;;;;;13.65;7.00;;;;;;;12.68;95.25;99007.50;5044902;28;20062;-68
2022/05/05 09:59:48;;;;;;;24.98;8.02;;;;;;;12.83;96.28;99007.16;5044787;28;20036;-68
2022/05/05 10:05:18;;;;;;;17.23;8.00;;;;;;;12.82;97.61;99005.41;5044663;28;20037;-68
2022/05/05 10:07:45;;;;;;;14.00;7.72;;;;;;;12.83;97.58;99008.94;5044616;28;20198;-68
2022/05/05 10:10:16;;;;;;;15.73;6.65;;;;;;;12.95;97.51;99006.84;5044427;28;20095;-68
2022/05/05 10:12:42;;;;;;;10.38;5.38;;;;;;;13.06;95.46;99005.81;5044440;28;20032;-68
2022/05/05 10:15:10;;;;;;;17.92;7.95;;;;;;;13.07;96.75;99004.88;5044430;28;20029;-68
2022/05/05 10:17:36;;;;;;;12.95;6.88;;;;;;;13.04;96.41;99006.69;5044553;28;20092;-68
2022/05/05 10:20:06;;;;;;;16.02;8.07;;;;;;;13.10;96.59;99004.81;5044362;28;20225;-68
2022/05/05 10:22:40;;;;;;;14.88;7.45;;;;;;;13.17;94.01;99001.13;5044325;28;20032;-68
2022/05/05 10:25:20;;;;;;;16.27;7.25;;;;;;;13.30;94.14;99005.19;5044289;28;20033;-68
2022/05/05 10:27:45;;;;;;;12.70;7.25;;;;;;;13.32;93.61;99001.59;5044308;28;20025;-68
2022/05/05 10:30:16;;;;;;;12.13;6.35;;;;;;;13.46;92.55;99004.81;5044193;28;20353;-68
2022/05/05 10:32:43;;;;;;;12.88;6.15;;;;;;;13.66;90.41;99001.63;5044349;28;20044;-68
2022/05/05 10:35:11;;;;;;;13.02;6.53;;;;;;;13.72;90.54;99009.41;5044109;28;20025;-68
2022/05/05 10:37:38;;;;;;;19.25;8.77;;;;;;;13.62;91.30;99007.91;5044005;28;20071;-68
2022/05/05 10:40:08;;;;;;;19.27;8.70;;;;;;;13.71;91.32;99005.03;5044066;28;20263;-68
2022/05/05 10:42:41;;;;;;;16.65;7.30;;;;;;;13.77;90.53;99015.47;5044023;28;20028;-68
2022/05/05 10:45:12;;;;;;;13.65;6.47;;;;;;;13.91;88.89;99018.59;5043948;28;20081;-68
2022/05/05 10:47:54;;;;;;;17.88;8.60;;;;;;;13.83;92.11;99010.88;5043908;28;20022;-68
2022/05/05 10:50:39;;;;;;;14.50;7.93;;;;;;;13.75;91.23;99017.28;5044229;28;20269;-68
2022/05/05 10:53:07;;;;;;;23.00;8.85;;;;;;;13.77;91.29;99012.81;5043888;28;20261;-68
2022/05/05 10:55:45;;;;;;;14.35;7.63;;;;;;;13.63;91.81;99012.28;5043902;28;20025;-68
2022/05/05 10:58:11;;;;;;;18.42;9.68;;;;;;;13.56;91.77;99010.72;5044013;28;20100;-68
2022/05/05 11:00:41;;;;;;;15.02;7.53;;;;;;;13.68;90.87;99002.47;5043822;28;20321;-68
2022/05/05 11:03:06;;;;;;;15.07;8.38;;;;;;;13.78;90.80;99007.50;5043617;28;20072;-68
2022/05/05 11:05:35;;;;;;;18.33;8.98;;;;;;;13.78;92.53;99006.59;5043824;28;20025;-68
2022/05/05 11:08:10;;;;;;;21.02;9.32;;;;;;;13.78;92.23;99011.91;5043798;28;20025;-68
2022/05/05 11:10:38;;;;;;;13.77;6.60;;;;;;;14.02;89.50;99021.84;5043759;28;20028;-68
2022/05/05 11:13:04;;;;;;;19.50;8.90;;;;;;;13.99;89.06;99006.06;5043764;28;20018;-68
2022/05/05 11:21:32;;;;;;;14.57;9.20;;;;;;;14.12;89.38;99018.03;5043681;28;20086;-68
2022/05/05 11:23:59;;;;;;;18.83;8.32;;;;;;;14.12;90.97;99010.09;5043655;28;20033;-68
2022/05/05 11:26:25;;;;;;;16.50;9.13;;;;;;;13.92;91.19;99009.78;5043718;28;20232;-68
2022/05/05 11:28:50;;;;;;;20.50;10.25;;;;;;;13.93;92.03;99017.69;5043711;28;20045;-68
2022/05/05 11:31:25;;;;;;;15.88;9.52;;;;;;;13.90;90.32;99022.16;5043632;28;20025;-68
2022/05/05 11:33:54;;;;;;;19.25;10.50;;;;;;;13.88;91.59;99018.69;5043822;28;20281;-68
2022/05/05 11:36:20;;;;;;;19.65;9.57;;;;;;;13.88;91.19;99023.97;5043450;28;20025;-68
2022/05/05 11:38:46;;;;;;;20.35;9.02;;;;;;;13.89;91.94;99020.44;5043505;28;20021;-68
2022/05/05 11:41:18;;;;;;;23.23;10.25;;;;;;;13.93;93.53;99011.50;5043482;28;20031;-68
2022/05/05 11:46:28;;;;;;;19.85;9.55;;;;;;;14.01;93.77;99009.50;5047084;28;19943;-68
2022/05/05 11:48:55;;;;;;;15.52;8.52;;;;;;;14.22;90.89;99020.41;5047230;28;20021;-68
2022/05/05 11:51:25;;;;;;;18.42;9.20;;;;;;;14.26;89.60;99015.91;5047115;28;20044;-68
2022/05/05 11:54:05;;;;;;;18.52;8.95;;;;;;;14.25;87.97;99014.19;5047034;28;20021;-68
2022/05/05 11:56:32;;;;;;;18.75;10.85;;;;;;;14.24;89.79;99012.44;5046943;28;20021;-68
2022/05/05 12:02:19;;;;;;;16.02;8.88;;;;;;;14.24;87.48;99007.16;5045996;28;20355;-68
2022/05/05 12:04:56;;;;;;;22.45;10.20;;;;;;;14.30;87.78;99017.56;5046860;28;20041;-68
2022/05/05 12:07:24;;;;;;;19.23;10.95;;;;;;;14.30;89.52;99017.56;5046870;28;20025;-68
2022/05/05 12:09:55;;;;;;;21.10;10.18;;;;;;;14.20;88.94;99005.44;5046777;28;20022;-68
2022/05/05 12:12:24;;;;;;;19.58;10.02;;;;;;;14.23;89.51;99013.34;5046767;28;20017;-68